Terminal Aerodrome Forecast
Issued by NWS

Home | Current Version | Previous Version | Text Only | Print | Product List | Glossary Off
Versions: 1 2 3 4 5 6 7 8 9 10 11 12 13 14 15 16

000
FTUS43 KMPX 220603 CCA
TAFAXN
TAF COR
KAXN 220603Z 2206/2306 03009KT P6SM SCT004 OVC005
     FM221000 03013G21KT P6SM OVC015
     FM221200 03014G22KT P6SM OVC008
     FM221800 02015G23KT P6SM BKN010
     FM230400 35011KT P6SM BKN045=

USA.gov is the U.S. government's official web portal to all federal, state and local government web resources and services.